sensor_id;sensor_type;location;lat;lon;timestamp;P1;durP1;ratioP1;P2;durP2;ratioP2
16502;SDS011;53067;48.114;11.694;2023-04-24T00:02:20;1.00;;;1.00;;
16502;SDS011;53067;48.114;11.694;2023-04-24T00:04:48;1.17;;;1.03;;
16502;SDS011;53067;48.114;11.694;2023-04-24T00:07:16;0.90;;;0.90;;
16502;SDS011;53067;48.114;11.694;2023-04-24T00:09:45;1.73;;;1.10;;
16502;SDS011;53067;48.114;11.694;2023-04-24T00:12:13;1.07;;;0.97;;
16502;SDS011;53067;48.114;11.694;2023-04-24T00:14:40;1.00;;;1.00;;
16502;SDS011;53067;48.114;11.694;2023-04-24T00:17:08;1.13;;;0.97;;
16502;SDS011;53067;48.114;11.694;2023-04-24T00:19:35;1.00;;;1.00;;
16502;SDS011;53067;48.114;11.694;2023-04-24T00:22:03;0.90;;;0.90;;
16502;SDS011;53067;48.114;11.694;2023-04-24T00:24:31;0.80;;;0.80;;
16502;SDS011;53067;48.114;11.694;2023-04-24T00:26:58;1.80;;;1.10;;
16502;SDS011;53067;48.114;11.694;2023-04-24T00:29:26;1.00;;;1.00;;
16502;SDS011;53067;48.114;11.694;2023-04-24T00:31:54;0.80;;;0.80;;
16502;SDS011;53067;48.114;11.694;2023-04-24T00:34:21;0.90;;;0.90;;
16502;SDS011;53067;48.114;11.694;2023-04-24T00:36:49;1.10;;;1.00;;
16502;SDS011;53067;48.114;11.694;2023-04-24T00:39:21;0.77;;;0.77;;
16502;SDS011;53067;48.114;11.694;2023-04-24T00:41:49;1.00;;;1.00;;
16502;SDS011;53067;48.114;11.694;2023-04-24T00:44:18;1.00;;;1.00;;
16502;SDS011;53067;48.114;11.694;2023-04-24T00:46:45;0.80;;;0.80;;
16502;SDS011;53067;48.114;11.694;2023-04-24T00:49:15;0.83;;;0.83;;
16502;SDS011;53067;48.114;11.694;2023-04-24T00:51:43;1.00;;;1.00;;
16502;SDS011;53067;48.114;11.694;2023-04-24T00:54:11;0.70;;;0.70;;
16502;SDS011;53067;48.114;11.694;2023-04-24T00:56:44;1.00;;;1.00;;
16502;SDS011;53067;48.114;11.694;2023-04-24T00:59:12;0.80;;;0.80;;
16502;SDS011;53067;48.114;11.694;2023-04-24T01:01:41;1.10;;;0.57;;
16502;SDS011;53067;48.114;11.694;2023-04-24T01:04:09;1.13;;;1.13;;
16502;SDS011;53067;48.114;11.694;2023-04-24T01:06:39;0.83;;;0.60;;
16502;SDS011;53067;48.114;11.694;2023-04-24T01:09:08;0.67;;;0.60;;
16502;SDS011;53067;48.114;11.694;2023-04-24T01:11:37;0.67;;;0.67;;
16502;SDS011;53067;48.114;11.694;2023-04-24T01:14:04;0.53;;;0.53;;
16502;SDS011;53067;48.114;11.694;2023-04-24T01:16:32;0.50;;;0.50;;
16502;SDS011;53067;48.114;11.694;2023-04-24T01:19:00;0.70;;;0.70;;
16502;SDS011;53067;48.114;11.694;2023-04-24T01:21:28;0.80;;;0.63;;
16502;SDS011;53067;48.114;11.694;2023-04-24T01:23:57;0.53;;;0.53;;
16502;SDS011;53067;48.114;11.694;2023-04-24T01:26:25;0.60;;;0.60;;
16502;SDS011;53067;48.114;11.694;2023-04-24T01:28:52;0.60;;;0.60;;
16502;SDS011;53067;48.114;11.694;2023-04-24T01:31:20;0.53;;;0.53;;
16502;SDS011;53067;48.114;11.694;2023-04-24T01:34:08;0.93;;;0.67;;
16502;SDS011;53067;48.114;11.694;2023-04-24T01:36:36;0.40;;;0.40;;
16502;SDS011;53067;48.114;11.694;2023-04-24T01:39:05;0.50;;;0.50;;
16502;SDS011;53067;48.114;11.694;2023-04-24T01:41:33;1.03;;;0.50;;
16502;SDS011;53067;48.114;11.694;2023-04-24T01:44:01;0.40;;;0.30;;
16502;SDS011;53067;48.114;11.694;2023-04-24T01:46:29;0.57;;;0.57;;
16502;SDS011;53067;48.114;11.694;2023-04-24T01:48:58;0.67;;;0.50;;
16502;SDS011;53067;48.114;11.694;2023-04-24T01:51:26;0.50;;;0.50;;
16502;SDS011;53067;48.114;11.694;2023-04-24T01:53:54;1.03;;;0.40;;
16502;SDS011;53067;48.114;11.694;2023-04-24T01:56:21;0.40;;;0.40;;
16502;SDS011;53067;48.114;11.694;2023-04-24T01:58:50;0.50;;;0.50;;
16502;SDS011;53067;48.114;11.694;2023-04-24T02:01:19;0.60;;;0.60;;
16502;SDS011;53067;48.114;11.694;2023-04-24T02:03:47;0.60;;;0.60;;
16502;SDS011;53067;48.114;11.694;2023-04-24T02:06:15;0.40;;;0.40;;
16502;SDS011;53067;48.114;11.694;2023-04-24T02:08:42;0.83;;;0.60;;
16502;SDS011;53067;48.114;11.694;2023-04-24T02:11:10;0.30;;;0.30;;
16502;SDS011;53067;48.114;11.694;2023-04-24T02:13:37;0.50;;;0.50;;
16502;SDS011;53067;48.114;11.694;2023-04-24T02:16:05;1.27;;;0.53;;
16502;SDS011;53067;48.114;11.694;2023-04-24T02:18:32;0.40;;;0.40;;
16502;SDS011;53067;48.114;11.694;2023-04-24T02:21:00;0.50;;;0.50;;
16502;SDS011;53067;48.114;11.694;2023-04-24T02:23:27;0.30;;;0.30;;
16502;SDS011;53067;48.114;11.694;2023-04-24T02:25:55;0.50;;;0.37;;
16502;SDS011;53067;48.114;11.694;2023-04-24T02:28:22;0.50;;;0.50;;
16502;SDS011;53067;48.114;11.694;2023-04-24T02:30:50;0.50;;;0.50;;
16502;SDS011;53067;48.114;11.694;2023-04-24T02:33:18;0.40;;;0.40;;
16502;SDS011;53067;48.114;11.694;2023-04-24T02:35:46;1.13;;;0.40;;
16502;SDS011;53067;48.114;11.694;2023-04-24T02:38:13;0.40;;;0.40;;
16502;SDS011;53067;48.114;11.694;2023-04-24T02:40:41;0.60;;;0.50;;
16502;SDS011;53067;48.114;11.694;2023-04-24T02:43:08;0.73;;;0.53;;
16502;SDS011;53067;48.114;11.694;2023-04-24T02:45:36;0.37;;;0.37;;
16502;SDS011;53067;48.114;11.694;2023-04-24T02:48:04;1.17;;;0.50;;
16502;SDS011;53067;48.114;11.694;2023-04-24T02:50:31;0.40;;;0.40;;
16502;SDS011;53067;48.114;11.694;2023-04-24T02:52:59;0.73;;;0.50;;
16502;SDS011;53067;48.114;11.694;2023-04-24T02:55:26;0.40;;;0.40;;
16502;SDS011;53067;48.114;11.694;2023-04-24T02:57:54;1.33;;;0.47;;
16502;SDS011;53067;48.114;11.694;2023-04-24T03:00:21;0.40;;;0.40;;
16502;SDS011;53067;48.114;11.694;2023-04-24T03:02:49;0.40;;;0.40;;
16502;SDS011;53067;48.114;11.694;2023-04-24T03:05:17;0.33;;;0.33;;
16502;SDS011;53067;48.114;11.694;2023-04-24T03:07:44;0.53;;;0.43;;
16502;SDS011;53067;48.114;11.694;2023-04-24T03:10:12;0.87;;;0.57;;
16502;SDS011;53067;48.114;11.694;2023-04-24T03:12:39;0.30;;;0.30;;
16502;SDS011;53067;48.114;11.694;2023-04-24T03:15:07;1.60;;;0.40;;
16502;SDS011;53067;48.114;11.694;2023-04-24T03:17:35;0.43;;;0.43;;
16502;SDS011;53067;48.114;11.694;2023-04-24T03:20:03;0.50;;;0.50;;
16502;SDS011;53067;48.114;11.694;2023-04-24T03:22:37;0.60;;;0.60;;
16502;SDS011;53067;48.114;11.694;2023-04-24T03:25:05;1.23;;;0.50;;
16502;SDS011;53067;48.114;11.694;2023-04-24T03:27:34;0.70;;;0.50;;
16502;SDS011;53067;48.114;11.694;2023-04-24T03:30:03;0.60;;;0.60;;
16502;SDS011;53067;48.114;11.694;2023-04-24T03:32:31;0.93;;;0.50;;
16502;SDS011;53067;48.114;11.694;2023-04-24T03:34:59;0.40;;;0.40;;
16502;SDS011;53067;48.114;11.694;2023-04-24T03:37:26;0.50;;;0.50;;
16502;SDS011;53067;48.114;11.694;2023-04-24T03:39:54;0.43;;;0.43;;
16502;SDS011;53067;48.114;11.694;2023-04-24T03:42:21;0.50;;;0.50;;
16502;SDS011;53067;48.114;11.694;2023-04-24T03:44:49;0.60;;;0.60;;
16502;SDS011;53067;48.114;11.694;2023-04-24T03:47:16;0.40;;;0.40;;
16502;SDS011;53067;48.114;11.694;2023-04-24T03:49:44;0.40;;;0.40;;
16502;SDS011;53067;48.114;11.694;2023-04-24T03:52:11;0.60;;;0.60;;
16502;SDS011;53067;48.114;11.694;2023-04-24T03:54:39;0.50;;;0.50;;
16502;SDS011;53067;48.114;11.694;2023-04-24T03:57:06;0.63;;;0.63;;
16502;SDS011;53067;48.114;11.694;2023-04-24T03:59:34;0.50;;;0.50;;
16502;SDS011;53067;48.114;11.694;2023-04-24T04:02:01;1.67;;;0.63;;
16502;SDS011;53067;48.114;11.694;2023-04-24T04:04:29;0.90;;;0.90;;
16502;SDS011;53067;48.114;11.694;2023-04-24T04:06:56;1.03;;;0.40;;
16502;SDS011;53067;48.114;11.694;2023-04-24T04:09:25;0.50;;;0.50;;
16502;SDS011;53067;48.114;11.694;2023-04-24T04:11:53;0.60;;;0.60;;
16502;SDS011;53067;48.114;11.694;2023-04-24T04:14:21;0.70;;;0.70;;
16502;SDS011;53067;48.114;11.694;2023-04-24T04:16:49;0.40;;;0.40;;
16502;SDS011;53067;48.114;11.694;2023-04-24T04:19:16;0.60;;;0.60;;
16502;SDS011;53067;48.114;11.694;2023-04-24T04:21:44;0.67;;;0.67;;
16502;SDS011;53067;48.114;11.694;2023-04-24T04:24:11;0.40;;;0.40;;
16502;SDS011;53067;48.114;11.694;2023-04-24T04:26:39;0.60;;;0.40;;
16502;SDS011;53067;48.114;11.694;2023-04-24T04:29:07;1.13;;;0.70;;
16502;SDS011;53067;48.114;11.694;2023-04-24T04:31:35;0.90;;;0.70;;
16502;SDS011;53067;48.114;11.694;2023-04-24T04:34:03;0.57;;;0.57;;
16502;SDS011;53067;48.114;11.694;2023-04-24T04:36:30;0.57;;;0.50;;
16502;SDS011;53067;48.114;11.694;2023-04-24T04:38:58;0.60;;;0.60;;
16502;SDS011;53067;48.114;11.694;2023-04-24T04:41:25;0.70;;;0.60;;
16502;SDS011;53067;48.114;11.694;2023-04-24T04:43:53;0.70;;;0.70;;
16502;SDS011;53067;48.114;11.694;2023-04-24T04:46:22;1.07;;;0.60;;
16502;SDS011;53067;48.114;11.694;2023-04-24T04:48:52;0.60;;;0.60;;
16502;SDS011;53067;48.114;11.694;2023-04-24T04:51:20;0.40;;;0.40;;
16502;SDS011;53067;48.114;11.694;2023-04-24T04:53:47;1.33;;;0.70;;
16502;SDS011;53067;48.114;11.694;2023-04-24T04:56:15;0.83;;;0.53;;
16502;SDS011;53067;48.114;11.694;2023-04-24T04:58:42;1.37;;;0.60;;
16502;SDS011;53067;48.114;11.694;2023-04-24T05:01:10;1.90;;;0.80;;
16502;SDS011;53067;48.114;11.694;2023-04-24T05:03:38;1.23;;;0.87;;
16502;SDS011;53067;48.114;11.694;2023-04-24T05:06:05;0.60;;;0.60;;
16502;SDS011;53067;48.114;11.694;2023-04-24T05:08:33;1.33;;;0.60;;
16502;SDS011;53067;48.114;11.694;2023-04-24T05:11:01;0.53;;;0.53;;
16502;SDS011;53067;48.114;11.694;2023-04-24T05:13:28;0.47;;;0.47;;
16502;SDS011;53067;48.114;11.694;2023-04-24T05:15:56;0.53;;;0.50;;
16502;SDS011;53067;48.114;11.694;2023-04-24T05:18:24;0.60;;;0.60;;
16502;SDS011;53067;48.114;11.694;2023-04-24T05:20:52;0.40;;;0.40;;
16502;SDS011;53067;48.114;11.694;2023-04-24T05:23:19;0.60;;;0.60;;
16502;SDS011;53067;48.114;11.694;2023-04-24T05:25:47;1.03;;;0.50;;
16502;SDS011;53067;48.114;11.694;2023-04-24T05:28:14;0.50;;;0.50;;
16502;SDS011;53067;48.114;11.694;2023-04-24T05:30:42;0.73;;;0.40;;
16502;SDS011;53067;48.114;11.694;2023-04-24T05:33:10;0.33;;;0.33;;
16502;SDS011;53067;48.114;11.694;2023-04-24T05:35:38;0.60;;;0.60;;
16502;SDS011;53067;48.114;11.694;2023-04-24T05:38:08;0.67;;;0.50;;
16502;SDS011;53067;48.114;11.694;2023-04-24T05:40:35;0.60;;;0.50;;
16502;SDS011;53067;48.114;11.694;2023-04-24T05:43:03;0.40;;;0.40;;
16502;SDS011;53067;48.114;11.694;2023-04-24T05:45:30;0.40;;;0.40;;
16502;SDS011;53067;48.114;11.694;2023-04-24T05:47:58;0.50;;;0.50;;
16502;SDS011;53067;48.114;11.694;2023-04-24T05:50:26;0.60;;;0.50;;
16502;SDS011;53067;48.114;11.694;2023-04-24T05:52:53;0.40;;;0.40;;
16502;SDS011;53067;48.114;11.694;2023-04-24T05:55:22;0.53;;;0.43;;
16502;SDS011;53067;48.114;11.694;2023-04-24T05:57:50;0.97;;;0.70;;
16502;SDS011;53067;48.114;11.694;2023-04-24T06:00:17;0.50;;;0.50;;
16502;SDS011;53067;48.114;11.694;2023-04-24T06:02:46;0.40;;;0.40;;
16502;SDS011;53067;48.114;11.694;2023-04-24T06:05:32;0.43;;;0.43;;
16502;SDS011;53067;48.114;11.694;2023-04-24T06:08:00;0.50;;;0.50;;
16502;SDS011;53067;48.114;11.694;2023-04-24T06:10:28;0.40;;;0.40;;
16502;SDS011;53067;48.114;11.694;2023-04-24T06:12:55;0.40;;;0.40;;
16502;SDS011;53067;48.114;11.694;2023-04-24T06:15:24;0.40;;;0.30;;
16502;SDS011;53067;48.114;11.694;2023-04-24T06:17:53;0.60;;;0.60;;
16502;SDS011;53067;48.114;11.694;2023-04-24T06:20:21;0.80;;;0.40;;
16502;SDS011;53067;48.114;11.694;2023-04-24T06:22:49;1.17;;;0.57;;
16502;SDS011;53067;48.114;11.694;2023-04-24T06:25:16;0.43;;;0.43;;
16502;SDS011;53067;48.114;11.694;2023-04-24T06:27:45;0.40;;;0.30;;
16502;SDS011;53067;48.114;11.694;2023-04-24T06:30:12;1.00;;;0.30;;
16502;SDS011;53067;48.114;11.694;2023-04-24T06:32:40;0.30;;;0.30;;
16502;SDS011;53067;48.114;11.694;2023-04-24T06:35:07;0.47;;;0.47;;
16502;SDS011;53067;48.114;11.694;2023-04-24T06:37:37;0.97;;;0.60;;
16502;SDS011;53067;48.114;11.694;2023-04-24T06:40:06;0.70;;;0.70;;
16502;SDS011;53067;48.114;11.694;2023-04-24T06:42:35;0.90;;;0.90;;
16502;SDS011;53067;48.114;11.694;2023-04-24T06:45:03;1.40;;;1.20;;
16502;SDS011;53067;48.114;11.694;2023-04-24T06:47:31;0.37;;;0.37;;
16502;SDS011;53067;48.114;11.694;2023-04-24T06:49:58;0.30;;;0.30;;
16502;SDS011;53067;48.114;11.694;2023-04-24T06:52:26;0.53;;;0.53;;
16502;SDS011;53067;48.114;11.694;2023-04-24T06:54:59;0.27;;;0.27;;
16502;SDS011;53067;48.114;11.694;2023-04-24T06:57:29;0.30;;;0.30;;
16502;SDS011;53067;48.114;11.694;2023-04-24T06:59:57;0.40;;;0.40;;
16502;SDS011;53067;48.114;11.694;2023-04-24T07:02:24;0.40;;;0.40;;
16502;SDS011;53067;48.114;11.694;2023-04-24T07:04:52;0.53;;;0.50;;
16502;SDS011;53067;48.114;11.694;2023-04-24T07:07:19;0.27;;;0.27;;
16502;SDS011;53067;48.114;11.694;2023-04-24T07:09:47;0.90;;;0.40;;
16502;SDS011;53067;48.114;11.694;2023-04-24T07:12:14;0.50;;;0.50;;
16502;SDS011;53067;48.114;11.694;2023-04-24T07:14:42;0.50;;;0.37;;
16502;SDS011;53067;48.114;11.694;2023-04-24T07:17:10;0.50;;;0.40;;
16502;SDS011;53067;48.114;11.694;2023-04-24T07:19:38;0.30;;;0.30;;
16502;SDS011;53067;48.114;11.694;2023-04-24T07:22:06;0.50;;;0.50;;
16502;SDS011;53067;48.114;11.694;2023-04-24T07:24:33;0.77;;;0.37;;
16502;SDS011;53067;48.114;11.694;2023-04-24T07:27:01;0.30;;;0.30;;
16502;SDS011;53067;48.114;11.694;2023-04-24T07:29:29;1.03;;;0.30;;
16502;SDS011;53067;48.114;11.694;2023-04-24T07:31:56;0.43;;;0.40;;
16502;SDS011;53067;48.114;11.694;2023-04-24T07:34:24;0.70;;;0.70;;
16502;SDS011;53067;48.114;11.694;2023-04-24T07:36:51;0.40;;;0.40;;
16502;SDS011;53067;48.114;11.694;2023-04-24T07:39:19;1.60;;;0.50;;
16502;SDS011;53067;48.114;11.694;2023-04-24T07:41:47;0.30;;;0.30;;
16502;SDS011;53067;48.114;11.694;2023-04-24T07:44:14;0.30;;;0.30;;
16502;SDS011;53067;48.114;11.694;2023-04-24T07:46:42;0.40;;;0.33;;
16502;SDS011;53067;48.114;11.694;2023-04-24T07:49:09;0.40;;;0.40;;
16502;SDS011;53067;48.114;11.694;2023-04-24T07:51:37;0.40;;;0.40;;
16502;SDS011;53067;48.114;11.694;2023-04-24T07:54:05;0.37;;;0.37;;
16502;SDS011;53067;48.114;11.694;2023-04-24T07:56:32;0.67;;;0.60;;
16502;SDS011;53067;48.114;11.694;2023-04-24T07:59:01;1.17;;;0.70;;
16502;SDS011;53067;48.114;11.694;2023-04-24T08:01:29;0.53;;;0.40;;
16502;SDS011;53067;48.114;11.694;2023-04-24T08:03:56;0.30;;;0.30;;
16502;SDS011;53067;48.114;11.694;2023-04-24T08:06:24;0.50;;;0.50;;
16502;SDS011;53067;48.114;11.694;2023-04-24T08:08:53;0.50;;;0.50;;
16502;SDS011;53067;48.114;11.694;2023-04-24T08:11:21;0.40;;;0.40;;
16502;SDS011;53067;48.114;11.694;2023-04-24T08:13:48;4.80;;;0.50;;
16502;SDS011;53067;48.114;11.694;2023-04-24T08:16:16;0.37;;;0.37;;
16502;SDS011;53067;48.114;11.694;2023-04-24T08:18:43;0.40;;;0.40;;
16502;SDS011;53067;48.114;11.694;2023-04-24T08:21:11;0.40;;;0.40;;
16502;SDS011;53067;48.114;11.694;2023-04-24T08:23:40;1.13;;;0.50;;
16502;SDS011;53067;48.114;11.694;2023-04-24T08:26:08;1.30;;;0.40;;
16502;SDS011;53067;48.114;11.694;2023-04-24T08:28:36;1.80;;;0.40;;
16502;SDS011;53067;48.114;11.694;2023-04-24T08:31:05;0.30;;;0.30;;
16502;SDS011;53067;48.114;11.694;2023-04-24T08:33:33;0.30;;;0.30;;
16502;SDS011;53067;48.114;11.694;2023-04-24T08:36:04;0.37;;;0.30;;
16502;SDS011;53067;48.114;11.694;2023-04-24T08:38:32;0.30;;;0.30;;
16502;SDS011;53067;48.114;11.694;2023-04-24T08:41:00;0.37;;;0.37;;
16502;SDS011;53067;48.114;11.694;2023-04-24T08:43:28;0.30;;;0.30;;
16502;SDS011;53067;48.114;11.694;2023-04-24T08:45:56;0.70;;;0.50;;
16502;SDS011;53067;48.114;11.694;2023-04-24T08:48:25;0.50;;;0.50;;
16502;SDS011;53067;48.114;11.694;2023-04-24T08:50:54;0.30;;;0.30;;
16502;SDS011;53067;48.114;11.694;2023-04-24T08:53:23;0.60;;;0.60;;
16502;SDS011;53067;48.114;11.694;2023-04-24T08:55:52;1.43;;;0.80;;
16502;SDS011;53067;48.114;11.694;2023-04-24T08:58:22;0.70;;;0.70;;
16502;SDS011;53067;48.114;11.694;2023-04-24T09:00:54;0.80;;;0.80;;
16502;SDS011;53067;48.114;11.694;2023-04-24T09:03:21;1.40;;;1.07;;
16502;SDS011;53067;48.114;11.694;2023-04-24T09:05:51;1.30;;;1.20;;
16502;SDS011;53067;48.114;11.694;2023-04-24T09:08:20;1.00;;;1.00;;
16502;SDS011;53067;48.114;11.694;2023-04-24T09:10:51;1.90;;;1.30;;
16502;SDS011;53067;48.114;11.694;2023-04-24T09:13:24;0.97;;;0.70;;
16502;SDS011;53067;48.114;11.694;2023-04-24T09:15:48;0.80;;;0.80;;
16502;SDS011;53067;48.114;11.694;2023-04-24T09:18:16;1.00;;;1.00;;
16502;SDS011;53067;48.114;11.694;2023-04-24T09:21:00;1.30;;;1.23;;
16502;SDS011;53067;48.114;11.694;2023-04-24T09:23:31;1.17;;;1.07;;
16502;SDS011;53067;48.114;11.694;2023-04-24T09:26:00;1.77;;;1.10;;
16502;SDS011;53067;48.114;11.694;2023-04-24T09:28:31;1.90;;;1.00;;
16502;SDS011;53067;48.114;11.694;2023-04-24T09:33:34;2.07;;;1.10;;
16502;SDS011;53067;48.114;11.694;2023-04-24T09:36:02;0.80;;;0.80;;
16502;SDS011;53067;48.114;11.694;2023-04-24T09:38:32;1.57;;;1.00;;
16502;SDS011;53067;48.114;11.694;2023-04-24T09:41:03;1.03;;;1.03;;
16502;SDS011;53067;48.114;11.694;2023-04-24T09:43:32;0.90;;;0.90;;
16502;SDS011;53067;48.114;11.694;2023-04-24T09:46:05;0.77;;;0.77;;
16502;SDS011;53067;48.114;11.694;2023-04-24T09:48:36;0.77;;;0.77;;
16502;SDS011;53067;48.114;11.694;2023-04-24T09:51:05;1.23;;;1.13;;
16502;SDS011;53067;48.114;11.694;2023-04-24T09:53:34;1.10;;;1.00;;
16502;SDS011;53067;48.114;11.694;2023-04-24T09:56:02;1.30;;;0.93;;
16502;SDS011;53067;48.114;11.694;2023-04-24T09:58:34;0.80;;;0.80;;
16502;SDS011;53067;48.114;11.694;2023-04-24T10:01:03;0.70;;;0.70;;
16502;SDS011;53067;48.114;11.694;2023-04-24T10:03:31;0.70;;;0.70;;
16502;SDS011;53067;48.114;11.694;2023-04-24T10:06:05;0.80;;;0.80;;
16502;SDS011;53067;48.114;11.694;2023-04-24T10:08:35;0.90;;;0.90;;
16502;SDS011;53067;48.114;11.694;2023-04-24T10:11:03;2.07;;;1.17;;
16502;SDS011;53067;48.114;11.694;2023-04-24T10:13:32;1.07;;;1.07;;
16502;SDS011;53067;48.114;11.694;2023-04-24T10:16:00;0.80;;;0.80;;
16502;SDS011;53067;48.114;11.694;2023-04-24T10:18:29;0.90;;;0.90;;
16502;SDS011;53067;48.114;11.694;2023-04-24T10:20:58;1.50;;;1.30;;
16502;SDS011;53067;48.114;11.694;2023-04-24T10:23:28;1.50;;;1.00;;
16502;SDS011;53067;48.114;11.694;2023-04-24T10:25:57;1.17;;;1.07;;
16502;SDS011;53067;48.114;11.694;2023-04-24T10:28:26;1.90;;;1.27;;
16502;SDS011;53067;48.114;11.694;2023-04-24T10:30:57;1.07;;;1.07;;
16502;SDS011;53067;48.114;11.694;2023-04-24T10:33:26;1.03;;;1.03;;
16502;SDS011;53067;48.114;11.694;2023-04-24T10:35:54;1.20;;;1.10;;
16502;SDS011;53067;48.114;11.694;2023-04-24T10:38:27;1.23;;;1.13;;
16502;SDS011;53067;48.114;11.694;2023-04-24T10:41:06;1.10;;;1.03;;
16502;SDS011;53067;48.114;11.694;2023-04-24T10:43:30;1.17;;;1.17;;
16502;SDS011;53067;48.114;11.694;2023-04-24T10:46:19;1.17;;;1.07;;
16502;SDS011;53067;48.114;11.694;2023-04-24T10:48:52;1.13;;;1.03;;
16502;SDS011;53067;48.114;11.694;2023-04-24T10:51:24;1.10;;;1.10;;
16502;SDS011;53067;48.114;11.694;2023-04-24T10:53:53;1.37;;;1.27;;
16502;SDS011;53067;48.114;11.694;2023-04-24T10:56:23;1.20;;;1.20;;
16502;SDS011;53067;48.114;11.694;2023-04-24T10:58:53;2.97;;;1.20;;
16502;SDS011;53067;48.114;11.694;2023-04-24T11:01:28;1.13;;;1.13;;
16502;SDS011;53067;48.114;11.694;2023-04-24T11:04:02;1.77;;;1.30;;
16502;SDS011;53067;48.114;11.694;2023-04-24T11:06:30;3.47;;;1.27;;
16502;SDS011;53067;48.114;11.694;2023-04-24T11:09:06;1.20;;;1.00;;
16502;SDS011;53067;48.114;11.694;2023-04-24T11:11:32;1.23;;;1.10;;
16502;SDS011;53067;48.114;11.694;2023-04-24T11:14:01;1.23;;;1.10;;
16502;SDS011;53067;48.114;11.694;2023-04-24T11:16:36;1.10;;;1.00;;
16502;SDS011;53067;48.114;11.694;2023-04-24T11:19:31;1.27;;;1.10;;
16502;SDS011;53067;48.114;11.694;2023-04-24T11:21:54;1.50;;;1.03;;
16502;SDS011;53067;48.114;11.694;2023-04-24T11:26:58;1.10;;;1.10;;
16502;SDS011;53067;48.114;11.694;2023-04-24T11:29:58;1.20;;;1.03;;
16502;SDS011;53067;48.114;11.694;2023-04-24T11:35:05;1.20;;;1.20;;
16502;SDS011;53067;48.114;11.694;2023-04-24T11:37:34;1.23;;;1.20;;
16502;SDS011;53067;48.114;11.694;2023-04-24T11:40:03;1.90;;;1.20;;
16502;SDS011;53067;48.114;11.694;2023-04-24T11:42:34;1.50;;;1.40;;
16502;SDS011;53067;48.114;11.694;2023-04-24T11:45:07;2.13;;;1.00;;
16502;SDS011;53067;48.114;11.694;2023-04-24T11:47:36;1.53;;;1.47;;
16502;SDS011;53067;48.114;11.694;2023-04-24T11:50:04;1.50;;;1.40;;
16502;SDS011;53067;48.114;11.694;2023-04-24T11:52:38;1.30;;;1.20;;
16502;SDS011;53067;48.114;11.694;2023-04-24T11:57:53;1.40;;;1.40;;
16502;SDS011;53067;48.114;11.694;2023-04-24T12:00:18;2.23;;;1.20;;
16502;SDS011;53067;48.114;11.694;2023-04-24T12:02:47;1.10;;;1.10;;
16502;SDS011;53067;48.114;11.694;2023-04-24T12:05:25;1.00;;;1.00;;
16502;SDS011;53067;48.114;11.694;2023-04-24T12:07:49;1.53;;;1.00;;
16502;SDS011;53067;48.114;11.694;2023-04-24T12:10:20;1.07;;;1.07;;
16502;SDS011;53067;48.114;11.694;2023-04-24T12:12:49;1.37;;;1.00;;
16502;SDS011;53067;48.114;11.694;2023-04-24T12:15:17;1.70;;;1.20;;
16502;SDS011;53067;48.114;11.694;2023-04-24T12:17:46;0.80;;;0.80;;
16502;SDS011;53067;48.114;11.694;2023-04-24T12:20:14;1.67;;;0.80;;
16502;SDS011;53067;48.114;11.694;2023-04-24T12:23:01;1.00;;;1.00;;
16502;SDS011;53067;48.114;11.694;2023-04-24T12:25:21;1.67;;;1.00;;
16502;SDS011;53067;48.114;11.694;2023-04-24T12:27:54;1.10;;;1.10;;
16502;SDS011;53067;48.114;11.694;2023-04-24T12:30:34;1.20;;;1.10;;
16502;SDS011;53067;48.114;11.694;2023-04-24T12:33:04;1.30;;;1.20;;
16502;SDS011;53067;48.114;11.694;2023-04-24T12:35:32;0.97;;;0.97;;
16502;SDS011;53067;48.114;11.694;2023-04-24T12:38:11;0.93;;;0.87;;
16502;SDS011;53067;48.114;11.694;2023-04-24T12:40:40;1.20;;;1.10;;
16502;SDS011;53067;48.114;11.694;2023-04-24T12:43:14;0.90;;;0.90;;
16502;SDS011;53067;48.114;11.694;2023-04-24T12:45:44;2.07;;;1.10;;
16502;SDS011;53067;48.114;11.694;2023-04-24T12:48:12;1.80;;;1.40;;
16502;SDS011;53067;48.114;11.694;2023-04-24T12:50:42;1.87;;;1.77;;
16502;SDS011;53067;48.114;11.694;2023-04-24T12:53:10;3.33;;;1.40;;
16502;SDS011;53067;48.114;11.694;2023-04-24T12:55:38;1.30;;;1.20;;
16502;SDS011;53067;48.114;11.694;2023-04-24T12:58:06;0.90;;;0.90;;
16502;SDS011;53067;48.114;11.694;2023-04-24T13:00:33;1.10;;;1.10;;
16502;SDS011;53067;48.114;11.694;2023-04-24T13:03:01;1.07;;;1.07;;
16502;SDS011;53067;48.114;11.694;2023-04-24T13:05:29;1.60;;;1.10;;
16502;SDS011;53067;48.114;11.694;2023-04-24T13:07:57;1.10;;;1.10;;
16502;SDS011;53067;48.114;11.694;2023-04-24T13:10:25;1.47;;;1.17;;
16502;SDS011;53067;48.114;11.694;2023-04-24T13:12:52;1.40;;;1.30;;
16502;SDS011;53067;48.114;11.694;2023-04-24T13:15:20;3.57;;;2.07;;
16502;SDS011;53067;48.114;11.694;2023-04-24T13:17:47;1.23;;;1.13;;
16502;SDS011;53067;48.114;11.694;2023-04-24T13:20:15;1.87;;;1.50;;
16502;SDS011;53067;48.114;11.694;2023-04-24T13:22:43;2.37;;;1.40;;
16502;SDS011;53067;48.114;11.694;2023-04-24T13:25:10;1.63;;;1.20;;
16502;SDS011;53067;48.114;11.694;2023-04-24T13:27:38;0.93;;;0.93;;
16502;SDS011;53067;48.114;11.694;2023-04-24T13:30:06;1.40;;;1.30;;
16502;SDS011;53067;48.114;11.694;2023-04-24T13:32:34;1.30;;;1.30;;
16502;SDS011;53067;48.114;11.694;2023-04-24T13:35:02;1.73;;;1.20;;
16502;SDS011;53067;48.114;11.694;2023-04-24T13:37:30;3.27;;;1.17;;
16502;SDS011;53067;48.114;11.694;2023-04-24T13:39:57;1.47;;;1.37;;
16502;SDS011;53067;48.114;11.694;2023-04-24T13:42:25;0.90;;;0.90;;
16502;SDS011;53067;48.114;11.694;2023-04-24T13:44:52;1.53;;;1.43;;
16502;SDS011;53067;48.114;11.694;2023-04-24T13:47:20;1.40;;;1.20;;
16502;SDS011;53067;48.114;11.694;2023-04-24T13:49:48;2.87;;;1.40;;
16502;SDS011;53067;48.114;11.694;2023-04-24T13:52:15;2.80;;;1.30;;
16502;SDS011;53067;48.114;11.694;2023-04-24T13:54:43;1.40;;;1.30;;
16502;SDS011;53067;48.114;11.694;2023-04-24T13:57:10;1.40;;;1.30;;
16502;SDS011;53067;48.114;11.694;2023-04-24T13:59:38;2.47;;;1.47;;
16502;SDS011;53067;48.114;11.694;2023-04-24T14:02:06;1.23;;;1.23;;
16502;SDS011;53067;48.114;11.694;2023-04-24T14:04:33;2.33;;;1.50;;
16502;SDS011;53067;48.114;11.694;2023-04-24T14:07:01;1.37;;;1.27;;
16502;SDS011;53067;48.114;11.694;2023-04-24T14:09:28;1.20;;;1.10;;
16502;SDS011;53067;48.114;11.694;2023-04-24T14:11:56;1.33;;;1.23;;
16502;SDS011;53067;48.114;11.694;2023-04-24T14:14:23;1.97;;;1.40;;
16502;SDS011;53067;48.114;11.694;2023-04-24T14:16:51;1.93;;;1.40;;
16502;SDS011;53067;48.114;11.694;2023-04-24T14:19:19;1.23;;;1.23;;
16502;SDS011;53067;48.114;11.694;2023-04-24T14:21:46;2.43;;;1.30;;
16502;SDS011;53067;48.114;11.694;2023-04-24T14:24:14;3.23;;;1.57;;
16502;SDS011;53067;48.114;11.694;2023-04-24T14:26:41;1.67;;;1.33;;
16502;SDS011;53067;48.114;11.694;2023-04-24T14:29:09;1.73;;;1.50;;
16502;SDS011;53067;48.114;11.694;2023-04-24T14:31:36;6.60;;;1.50;;
16502;SDS011;53067;48.114;11.694;2023-04-24T14:34:04;1.47;;;1.37;;
16502;SDS011;53067;48.114;11.694;2023-04-24T14:36:31;1.07;;;1.07;;
16502;SDS011;53067;48.114;11.694;2023-04-24T14:38:59;1.30;;;1.30;;
16502;SDS011;53067;48.114;11.694;2023-04-24T14:41:28;2.93;;;1.23;;
16502;SDS011;53067;48.114;11.694;2023-04-24T14:43:57;1.80;;;1.50;;
16502;SDS011;53067;48.114;11.694;2023-04-24T14:46:24;2.23;;;1.47;;
16502;SDS011;53067;48.114;11.694;2023-04-24T14:48:52;1.30;;;1.20;;
16502;SDS011;53067;48.114;11.694;2023-04-24T14:51:19;1.47;;;1.37;;
16502;SDS011;53067;48.114;11.694;2023-04-24T14:53:47;1.60;;;1.50;;